Conover, North Carolina
Current Conditions -  °F | °C
As of 12:53 AM on Friday 19 Dec 2014 (Local Time) from KHKY Reporting Station
Clear Clear  
Wind Chill:   Ceiling: Unl
Heat Index:   Visibility: 10mi
Dew Point: -1°   Wind: 3mph
Humidity: 73%   Direction: 10°N
Pressure: 30.1"   Gusts: NA
Location:  35.71°N, 81.22°W
Report Text: KHKY 190553Z AUTO 01003KT 10SM CLR 03/M01 A3010 RMK AO2 SLP185 T00331011 10083 20033 52004
Loading
Personal Weather Stations






























Interactive Weather Map New forecast layout! Learn more

10-Day Weather Forecast

Advertisements
Track Severe Weather on mobile